createdAt,value
2023-01-15T00:02:08.439Z,27.70
2023-01-15T00:04:39.174Z,33.15
2023-01-15T00:07:06.443Z,34.95
2023-01-15T00:09:33.685Z,36.28
2023-01-15T00:12:02.534Z,36.20
2023-01-15T00:14:31.209Z,37.03
2023-01-15T00:16:58.693Z,36.92
2023-01-15T00:19:26.100Z,38.35
2023-01-15T00:21:54.392Z,36.72
2023-01-15T00:24:40.945Z,38.95
2023-01-15T00:27:30.049Z,36.90
2023-01-15T00:29:57.169Z,31.58
2023-01-15T00:32:27.298Z,34.35
2023-01-15T00:34:56.086Z,34.40
2023-01-15T00:37:23.366Z,32.60
2023-01-15T00:39:50.944Z,32.40
2023-01-15T00:42:19.963Z,32.67
2023-01-15T00:44:49.110Z,34.60
2023-01-15T00:47:19.470Z,31.42
2023-01-15T00:49:46.851Z,32.55
2023-01-15T00:52:13.920Z,30.92
2023-01-15T00:54:41.025Z,29.98
2023-01-15T00:57:09.289Z,30.35
2023-01-15T00:59:36.351Z,26.98
2023-01-15T01:02:03.665Z,27.23
2023-01-15T01:04:31.001Z,25.67
2023-01-15T01:06:58.184Z,23.48
2023-01-15T01:09:25.318Z,21.40
2023-01-15T01:11:52.510Z,23.58
2023-01-15T01:14:19.745Z,23.02
2023-01-15T01:16:46.874Z,20.52
2023-01-15T01:19:25.518Z,20.83
2023-01-15T01:21:55.883Z,20.88
2023-01-15T01:24:24.498Z,19.27
2023-01-15T01:26:54.300Z,18.90
2023-01-15T01:29:22.837Z,21.15
2023-01-15T01:31:51.430Z,25.73
2023-01-15T01:34:18.641Z,28.70
2023-01-15T01:36:46.048Z,29.80
2023-01-15T01:39:16.705Z,31.83
2023-01-15T01:41:45.246Z,31.13
2023-01-15T01:44:33.866Z,34.80
2023-01-15T01:47:03.385Z,32.00
2023-01-15T01:49:31.119Z,31.60
2023-01-15T01:52:06.036Z,31.00
2023-01-15T01:54:35.761Z,31.80
2023-01-15T01:57:06.785Z,30.47
2023-01-15T01:59:34.503Z,30.75
2023-01-15T02:02:01.918Z,31.10
2023-01-15T02:04:30.662Z,30.85
2023-01-15T02:07:00.671Z,30.20
2023-01-15T02:09:27.931Z,30.95
2023-01-15T02:12:00.660Z,29.95
2023-01-15T02:14:39.916Z,30.90
2023-01-15T02:17:16.481Z,29.13
2023-01-15T02:20:15.169Z,29.00
2023-01-15T02:23:11.617Z,29.15
2023-01-15T02:25:48.286Z,30.45
2023-01-15T02:28:38.651Z,29.02
2023-01-15T02:31:29.756Z,26.65
2023-01-15T02:34:03.812Z,28.77
2023-01-15T02:36:38.448Z,29.60
2023-01-15T02:39:10.595Z,30.02
2023-01-15T02:41:43.273Z,31.42
2023-01-15T02:44:12.182Z,30.63
2023-01-15T02:46:40.539Z,31.67
2023-01-15T02:49:13.889Z,30.48
2023-01-15T02:51:47.451Z,32.42
2023-01-15T02:54:17.688Z,31.08
2023-01-15T02:56:49.790Z,31.02
2023-01-15T02:59:27.333Z,29.75
2023-01-15T03:02:00.960Z,30.70
2023-01-15T03:04:44.094Z,29.10
2023-01-15T03:07:30.234Z,30.20
2023-01-15T03:09:58.383Z,29.05
2023-01-15T03:12:57.721Z,28.63
2023-01-15T03:15:51.127Z,28.42
2023-01-15T03:18:22.260Z,28.77
2023-01-15T03:20:57.469Z,29.55
2023-01-15T03:23:28.494Z,29.30
2023-01-15T03:25:55.985Z,30.60
2023-01-15T03:28:29.475Z,30.38
2023-01-15T03:30:58.138Z,29.35
2023-01-15T03:33:26.709Z,30.20
2023-01-15T03:36:00.478Z,30.85
2023-01-15T03:38:30.723Z,31.73
2023-01-15T03:41:12.627Z,30.42
2023-01-15T03:43:59.236Z,29.33
2023-01-15T03:46:48.413Z,29.55
2023-01-15T03:49:34.251Z,32.60
2023-01-15T03:52:26.093Z,30.33
2023-01-15T03:55:11.455Z,29.60
2023-01-15T03:57:48.946Z,29.65
2023-01-15T04:00:25.522Z,29.17
2023-01-15T04:02:55.331Z,27.60
2023-01-15T04:05:24.230Z,28.40
2023-01-15T04:07:53.274Z,28.58
2023-01-15T04:10:20.629Z,29.02
2023-01-15T04:12:48.026Z,30.30
2023-01-15T04:15:16.501Z,29.00
2023-01-15T04:17:43.859Z,27.55
2023-01-15T04:20:12.030Z,30.70
2023-01-15T04:22:39.522Z,30.75
2023-01-15T04:25:07.823Z,29.98
2023-01-15T04:27:35.205Z,30.63
2023-01-15T04:30:02.899Z,29.80
2023-01-15T04:32:30.264Z,30.75
2023-01-15T04:34:57.426Z,30.02
2023-01-15T04:37:24.701Z,29.90
2023-01-15T04:39:51.893Z,28.85
2023-01-15T04:42:38.027Z,29.65
2023-01-15T04:45:05.664Z,29.98
2023-01-15T04:47:32.939Z,28.45
2023-01-15T04:50:00.188Z,28.48
2023-01-15T04:52:27.371Z,28.25
2023-01-15T04:54:56.093Z,25.75
2023-01-15T04:57:23.630Z,28.67
2023-01-15T04:59:50.987Z,24.42
2023-01-15T05:02:18.248Z,23.67
2023-01-15T05:04:45.903Z,23.20
2023-01-15T05:07:13.252Z,21.00
2023-01-15T05:09:40.357Z,22.38
2023-01-15T05:12:08.884Z,20.77
2023-01-15T05:14:36.121Z,19.77
2023-01-15T05:17:03.429Z,21.00
2023-01-15T05:19:30.611Z,21.33
2023-01-15T05:21:57.887Z,21.95
2023-01-15T05:24:25.201Z,20.55
2023-01-15T05:26:52.640Z,21.45
2023-01-15T05:29:19.876Z,25.05
2023-01-15T05:31:47.090Z,24.42
2023-01-15T05:34:14.400Z,24.23
2023-01-15T05:36:42.107Z,26.27
2023-01-15T05:39:09.901Z,24.30
2023-01-15T05:41:49.584Z,24.95
2023-01-15T05:44:28.150Z,25.23
2023-01-15T05:46:58.476Z,24.73
2023-01-15T05:49:28.518Z,23.50
2023-01-15T05:51:56.048Z,23.13
2023-01-15T05:54:29.154Z,23.17
2023-01-15T05:56:56.760Z,23.13
2023-01-15T05:59:27.069Z,22.13
2023-01-15T06:01:54.945Z,21.45
2023-01-15T06:04:22.259Z,22.13
2023-01-15T06:06:51.762Z,22.38
2023-01-15T06:09:19.807Z,22.85
2023-01-15T06:11:47.625Z,22.40
2023-01-15T06:14:15.587Z,23.75
2023-01-15T06:16:43.260Z,23.90
2023-01-15T06:19:13.328Z,23.15
2023-01-15T06:21:41.002Z,23.73
2023-01-15T06:24:09.034Z,23.77
2023-01-15T06:26:36.448Z,22.95
2023-01-15T06:29:03.659Z,23.90
2023-01-15T06:31:32.663Z,22.67
2023-01-15T06:33:59.969Z,22.75
2023-01-15T06:36:28.500Z,22.10
2023-01-15T06:38:56.493Z,23.92
2023-01-15T06:41:44.172Z,21.65
2023-01-15T06:44:33.003Z,23.13
2023-01-15T06:47:24.517Z,24.90
2023-01-15T06:49:58.075Z,24.77
2023-01-15T06:52:27.698Z,24.27
2023-01-15T06:54:55.841Z,23.13
2023-01-15T06:57:23.311Z,24.42
2023-01-15T06:59:51.619Z,26.08
2023-01-15T07:02:19.203Z,25.02
2023-01-15T07:04:48.768Z,26.38
2023-01-15T07:07:20.547Z,24.33
2023-01-15T07:09:48.002Z,25.65
2023-01-15T07:12:15.122Z,25.02
2023-01-15T07:14:42.468Z,25.30
2023-01-15T07:17:10.133Z,25.67
2023-01-15T07:19:37.853Z,26.25
2023-01-15T07:22:06.473Z,25.08
2023-01-15T07:24:34.114Z,25.27
2023-01-15T07:27:01.418Z,25.42
2023-01-15T07:29:30.724Z,25.08
2023-01-15T07:31:58.692Z,24.00
2023-01-15T07:34:25.885Z,24.95
2023-01-15T07:36:53.060Z,24.40
2023-01-15T07:39:22.110Z,21.77
2023-01-15T07:42:15.002Z,22.25
2023-01-15T07:45:03.011Z,22.40
2023-01-15T07:47:49.330Z,23.42
2023-01-15T07:50:20.044Z,22.50
2023-01-15T07:52:47.668Z,22.40
2023-01-15T07:55:15.366Z,22.65
2023-01-15T07:57:43.910Z,22.48
2023-01-15T08:00:15.427Z,22.88
2023-01-15T08:02:43.072Z,23.48
2023-01-15T08:05:11.724Z,23.58
2023-01-15T08:07:40.721Z,22.88
2023-01-15T08:10:10.465Z,22.20
2023-01-15T08:12:57.479Z,22.33
2023-01-15T08:15:25.841Z,23.25
2023-01-15T08:17:53.453Z,20.88
2023-01-15T08:20:26.257Z,20.10
2023-01-15T08:22:53.830Z,19.42
2023-01-15T08:25:24.555Z,19.90
2023-01-15T08:27:53.157Z,21.02
2023-01-15T08:30:25.778Z,21.67
2023-01-15T08:33:00.963Z,33.92
2023-01-15T08:35:28.251Z,36.05
2023-01-15T08:37:55.540Z,29.90
2023-01-15T08:40:23.361Z,32.85
2023-01-15T08:42:52.019Z,20.45
2023-01-15T08:45:19.161Z,20.98
2023-01-15T08:47:49.930Z,17.98
2023-01-15T08:50:17.162Z,18.00
2023-01-15T08:52:44.386Z,17.85
2023-01-15T08:55:17.706Z,17.70
2023-01-15T08:57:44.888Z,17.95
2023-01-15T09:00:30.429Z,17.73
2023-01-15T09:02:58.237Z,17.98
2023-01-15T09:05:28.356Z,16.95
2023-01-15T09:07:55.702Z,16.15
2023-01-15T09:10:23.528Z,16.42
2023-01-15T09:12:53.003Z,16.83
2023-01-15T09:15:20.149Z,15.88
2023-01-15T09:17:47.587Z,15.32
2023-01-15T09:20:15.270Z,15.32
2023-01-15T09:22:44.675Z,16.55
2023-01-15T09:25:11.858Z,16.80
2023-01-15T09:27:39.765Z,16.10
2023-01-15T09:30:07.506Z,18.13
2023-01-15T09:32:34.697Z,18.52
2023-01-15T09:35:04.163Z,16.05
2023-01-15T09:37:31.428Z,15.75
2023-01-15T09:39:58.529Z,15.25
2023-01-15T09:42:41.785Z,15.50
2023-01-15T09:45:24.016Z,15.20
2023-01-15T09:48:16.793Z,15.45
2023-01-15T09:51:18.731Z,25.83
2023-01-15T09:53:54.695Z,35.30
2023-01-15T09:56:30.425Z,19.92
2023-01-15T09:59:01.690Z,15.77
2023-01-15T10:01:34.593Z,13.73
2023-01-15T10:04:04.677Z,13.65
2023-01-15T10:06:47.718Z,14.17
2023-01-15T10:09:31.697Z,14.40
2023-01-15T10:12:26.176Z,14.23
2023-01-15T10:15:22.370Z,13.07
2023-01-15T10:17:53.833Z,12.80
2023-01-15T10:20:32.527Z,12.20
2023-01-15T10:23:55.343Z,13.07
2023-01-15T10:26:22.658Z,12.73
2023-01-15T10:28:56.852Z,12.00
2023-01-15T10:32:01.390Z,11.80
2023-01-15T10:34:42.316Z,11.23
2023-01-15T10:37:31.511Z,12.15
2023-01-15T10:40:22.952Z,11.63
2023-01-15T10:42:50.084Z,85.53
2023-01-15T10:45:24.550Z,81.03
2023-01-15T10:48:03.724Z,27.60
2023-01-15T10:50:39.522Z,42.50
2023-01-15T10:53:39.558Z,65.40
2023-01-15T10:56:20.650Z,30.27
2023-01-15T10:58:57.615Z,19.83
2023-01-15T11:01:30.046Z,14.00
2023-01-15T11:03:58.662Z,11.82
2023-01-15T11:06:35.948Z,17.25
2023-01-15T11:09:10.487Z,13.65
2023-01-15T11:12:01.742Z,9.55
2023-01-15T11:15:05.127Z,9.55
2023-01-15T11:18:15.703Z,8.18
2023-01-15T11:20:48.126Z,7.85
2023-01-15T11:23:19.873Z,8.95
2023-01-15T11:26:00.044Z,26.58
2023-01-15T11:28:44.201Z,19.35
2023-01-15T11:31:21.691Z,18.58
2023-01-15T11:33:59.650Z,11.75
2023-01-15T11:36:31.378Z,9.32
2023-01-15T11:39:00.729Z,47.05
2023-01-15T11:41:49.884Z,89.57
2023-01-15T11:44:40.952Z,36.75
2023-01-15T11:47:32.252Z,13.27
2023-01-15T11:50:17.984Z,8.65
2023-01-15T11:52:57.651Z,8.35
2023-01-15T11:55:27.683Z,7.93
2023-01-15T11:58:03.355Z,7.93
2023-01-15T12:00:44.030Z,7.45
2023-01-15T12:06:14.485Z,7.95
2023-01-15T12:08:53.082Z,7.53
2023-01-15T12:11:27.405Z,7.63
2023-01-15T12:13:54.676Z,7.80
2023-01-15T12:16:46.973Z,8.40
2023-01-15T12:19:19.980Z,8.40
2023-01-15T12:22:06.071Z,7.65
2023-01-15T12:24:35.968Z,7.03
2023-01-15T12:27:26.522Z,7.50
2023-01-15T12:30:23.856Z,7.70
2023-01-15T12:33:11.879Z,7.43
2023-01-15T12:35:43.116Z,7.22
2023-01-15T12:38:20.593Z,7.03
2023-01-15T12:41:19.644Z,6.60
2023-01-15T12:44:11.027Z,6.10
2023-01-15T12:46:43.172Z,6.28
2023-01-15T12:49:32.004Z,6.30
2023-01-15T12:52:24.439Z,6.43
2023-01-15T12:55:00.867Z,6.07
2023-01-15T12:57:36.941Z,6.53
2023-01-15T13:00:17.568Z,21.05
2023-01-15T13:03:11.702Z,31.65
2023-01-15T13:05:53.569Z,17.20
2023-01-15T13:08:51.801Z,60.72
2023-01-15T13:11:19.036Z,90.35
2023-01-15T13:13:58.423Z,44.90
2023-01-15T13:16:37.839Z,10.68
2023-01-15T13:19:24.430Z,8.45
2023-01-15T13:21:55.097Z,8.80
2023-01-15T13:24:34.530Z,8.45
2023-01-15T13:27:29.621Z,7.25
2023-01-15T13:30:16.055Z,7.78
2023-01-15T13:32:48.640Z,8.15
2023-01-15T13:35:42.042Z,11.18
2023-01-15T13:38:20.092Z,10.05
2023-01-15T13:40:53.463Z,7.80
2023-01-15T13:43:43.721Z,6.88
2023-01-15T13:46:13.665Z,6.95
2023-01-15T13:51:32.111Z,64.15
2023-01-15T13:54:01.075Z,28.30
2023-01-15T13:56:31.362Z,24.77
2023-01-15T13:59:01.144Z,20.08
2023-01-15T14:01:31.223Z,10.50
2023-01-15T14:04:06.482Z,9.30
2023-01-15T14:06:46.945Z,9.45
2023-01-15T14:09:34.912Z,9.98
2023-01-15T14:12:07.916Z,12.13
2023-01-15T14:15:09.106Z,140.57
2023-01-15T14:17:57.779Z,77.50
2023-01-15T14:20:59.317Z,26.42
2023-01-15T14:24:11.914Z,9.30
2023-01-15T14:27:00.501Z,8.88
2023-01-15T14:29:45.746Z,8.82
2023-01-15T14:32:39.047Z,8.27
2023-01-15T14:35:16.702Z,8.30
2023-01-15T14:40:35.023Z,9.48
2023-01-15T14:43:10.618Z,10.75
2023-01-15T14:45:51.835Z,10.48
2023-01-15T14:48:35.201Z,10.45
2023-01-15T14:51:24.411Z,11.15
2023-01-15T14:54:01.456Z,10.15
2023-01-15T14:56:37.140Z,9.55
2023-01-15T14:59:23.169Z,10.18
2023-01-15T15:02:02.967Z,10.52
2023-01-15T15:04:40.990Z,10.73
2023-01-15T15:07:12.148Z,11.20
2023-01-15T15:10:14.101Z,11.75
2023-01-15T15:12:48.424Z,11.57
2023-01-15T15:15:28.062Z,11.70
2023-01-15T15:18:15.962Z,12.38
2023-01-15T15:21:05.760Z,12.35
2023-01-15T15:23:47.330Z,13.10
2023-01-15T15:26:39.365Z,20.02
2023-01-15T15:29:10.848Z,16.33
2023-01-15T15:32:02.802Z,17.90
2023-01-15T15:34:41.450Z,18.65
2023-01-15T15:37:18.496Z,20.20
2023-01-15T15:40:04.639Z,39.75
2023-01-15T15:42:59.208Z,135.30
2023-01-15T15:46:13.046Z,49.42
2023-01-15T15:48:46.857Z,26.92
2023-01-15T15:51:30.063Z,19.08
2023-01-15T15:54:19.261Z,19.95
2023-01-15T15:57:02.797Z,19.73
2023-01-15T15:59:44.265Z,22.27
2023-01-15T16:02:17.110Z,24.17
2023-01-15T16:04:55.407Z,24.02
2023-01-15T16:07:34.181Z,22.88
2023-01-15T16:10:13.352Z,25.63
2023-01-15T16:12:49.885Z,25.58
2023-01-15T16:15:31.292Z,24.05
2023-01-15T16:18:00.021Z,33.40
2023-01-15T16:20:28.014Z,34.22
2023-01-15T16:23:02.190Z,31.02
2023-01-15T16:25:32.911Z,27.77
2023-01-15T16:28:01.502Z,27.30
2023-01-15T16:30:33.333Z,26.33
2023-01-15T16:33:07.167Z,26.63
2023-01-15T16:35:38.236Z,26.52
2023-01-15T16:38:07.675Z,25.58
2023-01-15T16:40:40.494Z,28.75
2023-01-15T16:43:22.329Z,30.15
2023-01-15T16:46:17.327Z,29.08
2023-01-15T16:48:48.636Z,25.00
2023-01-15T16:51:34.379Z,28.25
2023-01-15T16:54:07.293Z,31.02
2023-01-15T16:56:37.692Z,26.35
2023-01-15T16:59:17.728Z,33.45
2023-01-15T17:01:47.516Z,32.05
2023-01-15T17:04:39.735Z,31.25
2023-01-15T17:07:35.915Z,28.83
2023-01-15T17:10:05.551Z,28.90
2023-01-15T17:12:36.395Z,27.67
2023-01-15T17:15:15.621Z,28.20
2023-01-15T17:17:47.104Z,30.90
2023-01-15T17:20:15.162Z,27.05
2023-01-15T17:22:47.836Z,26.65
2023-01-15T17:25:24.345Z,27.40
2023-01-15T17:27:52.116Z,27.60
2023-01-15T17:30:19.726Z,27.48
2023-01-15T17:32:48.202Z,29.80
2023-01-15T17:35:49.182Z,29.70
2023-01-15T17:38:19.433Z,28.08
2023-01-15T17:43:16.671Z,24.92
2023-01-15T17:45:44.297Z,26.92
2023-01-15T17:48:13.641Z,37.78
2023-01-15T17:50:41.886Z,39.17
2023-01-15T17:53:10.446Z,40.80
2023-01-15T17:55:57.507Z,38.85
2023-01-15T17:58:43.055Z,37.78
2023-01-15T18:01:39.658Z,36.72
2023-01-15T18:04:50.842Z,34.97
2023-01-15T18:07:21.698Z,34.22
2023-01-15T18:09:56.349Z,33.97
2023-01-15T18:12:23.896Z,35.15
2023-01-15T18:14:51.286Z,34.55
2023-01-15T18:17:18.556Z,35.40
2023-01-15T18:19:55.930Z,34.38
2023-01-15T18:22:23.822Z,33.50
2023-01-15T18:24:56.719Z,49.78
2023-01-15T18:30:19.443Z,38.85
2023-01-15T18:36:11.673Z,36.13
2023-01-15T18:39:06.883Z,36.85
2023-01-15T18:41:36.541Z,37.30
2023-01-15T18:44:23.894Z,37.20
2023-01-15T18:49:55.182Z,36.38
2023-01-15T18:52:40.784Z,43.30
2023-01-15T18:55:08.190Z,38.17
2023-01-15T18:57:35.436Z,36.80
2023-01-15T19:00:05.512Z,36.50
2023-01-15T19:02:32.656Z,37.20
2023-01-15T19:05:02.727Z,36.20
2023-01-15T19:07:29.916Z,34.80
2023-01-15T19:09:57.085Z,36.35
2023-01-15T19:12:24.394Z,36.28
2023-01-15T19:15:10.090Z,35.65
2023-01-15T19:17:59.030Z,33.92
2023-01-15T19:20:26.297Z,37.88
2023-01-15T19:22:59.311Z,39.45
2023-01-15T19:25:40.859Z,41.55
2023-01-15T19:28:10.344Z,39.22
2023-01-15T19:30:39.090Z,40.73
2023-01-15T19:33:08.564Z,42.85
2023-01-15T19:35:41.138Z,40.60
2023-01-15T19:38:24.144Z,39.55
2023-01-15T19:40:51.535Z,42.33
2023-01-15T19:43:37.367Z,40.85
2023-01-15T19:46:34.582Z,38.17
2023-01-15T19:49:20.516Z,40.20
2023-01-15T19:52:08.723Z,39.30
2023-01-15T19:54:54.261Z,39.38
2023-01-15T19:57:21.711Z,40.13
2023-01-15T19:59:49.852Z,40.58
2023-01-15T20:02:17.758Z,40.40
2023-01-15T20:04:48.393Z,46.88
2023-01-15T20:07:17.474Z,47.53
2023-01-15T20:09:47.016Z,51.10
2023-01-15T20:12:32.443Z,51.15
2023-01-15T20:15:00.576Z,64.15
2023-01-15T20:17:31.718Z,66.63
2023-01-15T20:20:00.579Z,57.85
2023-01-15T20:22:31.688Z,52.92
2023-01-15T20:24:59.033Z,62.78
2023-01-15T20:27:28.898Z,58.97
2023-01-15T20:29:56.677Z,56.63
2023-01-15T20:32:26.649Z,57.45
2023-01-15T20:34:54.203Z,57.58
2023-01-15T20:37:26.444Z,55.95
2023-01-15T20:39:59.216Z,54.78
2023-01-15T20:42:51.604Z,54.15
2023-01-15T20:45:18.781Z,53.72
2023-01-15T20:48:07.586Z,51.35
2023-01-15T20:50:36.861Z,50.72
2023-01-15T20:53:08.323Z,52.67
2023-01-15T20:55:55.895Z,51.05
2023-01-15T20:58:34.709Z,50.25
2023-01-15T21:01:04.028Z,48.30
2023-01-15T21:03:31.497Z,50.25
2023-01-15T21:06:08.453Z,52.08
2023-01-15T21:08:58.230Z,51.58
2023-01-15T21:11:33.370Z,48.97
2023-01-15T21:14:01.784Z,47.95
2023-01-15T21:16:31.526Z,49.67
2023-01-15T21:21:47.013Z,48.50
2023-01-15T21:24:14.204Z,46.83
2023-01-15T21:26:42.874Z,46.42
2023-01-15T21:29:13.269Z,46.35
2023-01-15T21:31:44.444Z,47.15
2023-01-15T21:34:14.802Z,47.90
2023-01-15T21:36:51.959Z,47.35
2023-01-15T21:39:34.716Z,48.22
2023-01-15T21:42:29.475Z,47.67
2023-01-15T21:45:10.610Z,49.33
2023-01-15T21:47:43.087Z,47.40
2023-01-15T21:50:15.250Z,45.53
2023-01-15T21:52:47.577Z,46.63
2023-01-15T21:55:16.682Z,46.30
2023-01-15T21:57:50.018Z,45.88
2023-01-15T22:00:20.694Z,43.63
2023-01-15T22:02:58.676Z,45.88
2023-01-15T22:05:26.234Z,46.15
2023-01-15T22:07:56.278Z,45.88
2023-01-15T22:10:28.644Z,45.15
2023-01-15T22:13:02.040Z,45.85
2023-01-15T22:15:29.416Z,47.75
2023-01-15T22:17:58.327Z,44.75
2023-01-15T22:20:25.802Z,47.25
2023-01-15T22:22:53.324Z,47.17
2023-01-15T22:25:20.540Z,44.80
2023-01-15T22:27:47.786Z,48.65
2023-01-15T22:30:20.191Z,48.15
2023-01-15T22:32:47.641Z,48.00
2023-01-15T22:35:17.125Z,45.50
2023-01-15T22:37:45.567Z,45.67
2023-01-15T22:40:15.699Z,45.08
2023-01-15T22:42:43.906Z,44.42
2023-01-15T22:45:11.523Z,44.50
2023-01-15T22:47:38.777Z,42.97
2023-01-15T22:50:06.259Z,45.05
2023-01-15T22:52:33.497Z,44.58
2023-01-15T22:55:00.755Z,43.50
2023-01-15T22:57:31.271Z,46.03
2023-01-15T22:59:58.743Z,44.80
2023-01-15T23:02:44.891Z,44.45
2023-01-15T23:05:14.788Z,43.80
2023-01-15T23:07:42.560Z,46.58
2023-01-15T23:10:11.971Z,44.60
2023-01-15T23:12:40.243Z,44.63
2023-01-15T23:15:13.637Z,39.67
2023-01-15T23:17:41.315Z,37.17
2023-01-15T23:20:16.158Z,37.75
2023-01-15T23:22:43.580Z,40.70
2023-01-15T23:25:10.753Z,40.58
2023-01-15T23:27:38.375Z,45.15
2023-01-15T23:30:06.795Z,46.50
2023-01-15T23:32:34.277Z,48.25
2023-01-15T23:35:01.978Z,48.13
2023-01-15T23:37:29.184Z,49.67
2023-01-15T23:39:59.142Z,49.22
2023-01-15T23:42:44.865Z,52.55
2023-01-15T23:45:30.930Z,53.25
2023-01-15T23:48:00.682Z,51.90
2023-01-15T23:50:30.194Z,52.67
2023-01-15T23:53:00.712Z,50.15
2023-01-15T23:55:28.045Z,48.60
2023-01-15T23:57:55.354Z,50.95
